Ladue, Missouri
Current Conditions -  °F | °C
As of 5:51 AM on Saturday 20 Dec 2014 (Local Time) from KSTL Reporting Station
Overcast Overcast  
Wind Chill: 31°   Ceiling: 6000
Heat Index: 36°   Visibility: 8mi
Dew Point: 27°   Wind: 6mph
Humidity: 70%   Direction: 140°SE
Pressure: 30.25"   Gusts: NA
Location:  38.6383°N, 90.3807°W
Report Text: KSTL 201151Z 14005KT 8SM SCT027 OVC060 02/M03 A3025 RMK AO2 SLP251 T00221028 10022 20022 58005
Loading
Personal Weather Stations






























Interactive Weather Map New forecast layout! Learn more

10-Day Weather Forecast

Advertisements
Track Severe Weather on mobile